Date,TemperatureHighF,TemperatureAvgF,TemperatureLowF,DewpointHighF,DewpointAvgF,DewpointLowF,HumidityHigh,HumidityAvg,HumidityLow,PressureMaxIn,PressureMinIn,WindSpeedMaxMPH,WindSpeedAvgMPH,GustSpeedMaxMPH,PrecipitationSumIn
2013-3-1,45.4,42.0,38.2,32.1,29.5,25.1,68,61,51,29.88,29.72,15,10,26,0.00
2013-3-2,38.2,35.1,32.5,25.5,23.3,21.0,67,62,51,29.89,29.81,14,10,23,0.00
2013-3-3,40.9,35.1,31.4,23.2,21.1,18.5,67,57,45,29.91,29.79,16,11,24,0.00
2013-3-4,44.3,36.1,30.3,21.5,18.8,15.5,60,50,38,30.03,29.91,18,11,26,0.00
2013-3-5,50.7,41.5,35.4,31.3,22.0,15.3,76,47,25,30.08,29.82,13,6,18,0.00
2013-3-6,41.2,36.6,33.4,35.4,33.4,30.8,94,88,73,29.99,29.59,22,14,32,0.87
2013-3-7,49.4,43.7,38.6,34.0,29.7,26.6,76,59,43,30.14,29.98,20,11,28,0.00
2013-3-8,49.1,43.5,38.2,30.7,28.8,25.2,70,57,46,30.26,30.12,22,13,33,0.00
2013-3-9,61.8,50.2,38.3,32.2,27.3,24.4,60,43,26,30.34,30.23,12,4,16,0.00
2013-3-10,62.1,50.5,38.6,37.6,27.7,16.5,70,45,17,30.33,30.20,12,4,16,0.00
2013-3-11,61.9,51.9,44.3,50.8,45.1,37.9,92,78,65,30.25,29.93,12,6,17,0.00
2013-3-12,59.4,54.9,44.9,56.7,46.7,31.7,94,74,56,29.96,29.68,17,10,23,0.79
2013-3-13,50.1,43.8,36.6,32.2,27.3,20.3,62,53,33,30.06,29.89,19,9,30,0.00
2013-3-14,45.3,38.8,33.7,21.9,18.5,16.3,58,44,32,30.13,30.01,21,13,35,0.00
2013-3-15,57.6,46.7,37.3,37.1,26.0,19.7,54,45,33,30.09,29.77,16,6,21,0.00
2013-3-16,59.7,49.8,40.3,44.6,37.4,34.2,79,63,49,29.92,29.62,12,5,18,0.00
2013-3-17,41.9,39.4,36.4,34.6,30.4,26.8,82,70,57,30.27,29.90,11,5,15,0.00
2013-3-18,39.4,37.3,33.2,36.8,30.0,22.9,93,76,54,30.32,29.88,13,6,20,0.26
2013-3-19,59.0,47.3,38.0,40.3,31.0,11.2,92,61,16,29.91,29.70,26,9,40,0.00
2013-3-20,51.9,46.0,38.5,25.5,17.0,11.9,49,31,24,29.99,29.76,19,10,26,0.00
2013-3-21,43.3,35.2,30.8,27.9,16.8,9.8,78,47,36,29.90,29.75,17,11,25,0.00
2013-3-22,47.0,37.3,30.1,22.1,17.9,11.7,52,45,35,30.00,29.88,18,10,25,0.00
2013-3-23,53.2,43.3,34.3,27.0,23.9,21.2,60,47,35,30.03,29.90,14,7,21,0.00
2013-3-24,42.4,38.8,34.1,32.7,25.1,21.8,92,59,47,30.00,29.65,10,4,14,0.02
2013-3-25,39.3,36.1,33.2,36.7,33.5,31.3,94,90,85,29.70,29.51,8,4,12,0.44
2013-3-26,50.3,42.8,35.8,34.8,31.7,27.5,91,67,43,29.98,29.69,13,8,22,0.00
2013-3-27,49.4,44.4,39.2,30.9,29.3,26.1,67,56,41,30.11,29.98,18,12,27,0.00
2013-3-28,48.5,44.5,40.0,33.1,30.1,27.0,66,57,44,30.22,30.08,18,10,28,0.00
2013-3-29,56.2,49.2,42.6,33.5,31.1,28.0,64,50,36,30.25,30.13,16,7,24,0.00
2013-3-30,60.1,55.5,48.8,32.9,28.9,25.6,53,37,28,30.19,30.10,13,4,16,0.00
2013-3-31,56.2,52.8,48.6,50.0,46.4,30.4,92,80,46,30.12,29.73,11,5,15,0.01